Lenox, Missouri
Current Conditions -  °F | °C
As of 5:58 PM on Sunday 23 Nov 2014 (Local Time) from KTBN Reporting Station
Overcast Overcast  
Wind Chill: 54°   Ceiling: 4600
Heat Index: 54°   Visibility: 10mi
Dew Point: 54°   Wind: 6mph
Humidity: 100%   Direction: 150°SSE
Pressure: 29.3"   Gusts: NA
Location:  37.65°N, 91.76°W
Report Text: KTBN 232358Z AUTO 15005KT 10SM OVC046 12/12 A2930 RMK AO2 SLP922 60003 T01230123 10131 20119 57014
Loading
Personal Weather Stations






























Interactive Weather Map New forecast layout! Learn more

10-Day Weather Forecast

Advertisements
Track Severe Weather on mobile